Portada
METAR-TAF:

METAR-TAF

Aeropuertos :

Aeropuerto Internacional de Kunming-Changshui

Kunming, China

latitud: 25-01N, longitud: 102-41E, altitud: 1892 m

Observación

El informe se hizo hace 1 hora y 5 minutos, a las 05:00 UTC
Viento 8 kt del suroeste, variando entre sur y oeste
Temperatura 25°C
Humedad 57%
Presión 1016 hPa
Visibilidad 10 km o más
Nubes dispersas a una altura de 2600 ft

METAR: ZPPP 210500Z 23004MPS 180V270 9999 SCT026 25/16 Q1016 NOSIG

Hora: 14:05 (06:05 UTC)

Pronóstico

El informe se hizo hace 10 horas y 50 minutos, a las 19:15 UTC
Pronóstico válido del 21 a las 00 UTC al 21 a las 24 UTC
Viento 8 kt del oeste-suroeste
Visibilidad 10 km o más
Nubes dispersas a una altura de 2600 ft
Cielo nuboso a una altura de 4000 ft
Evolucionando progresivamente
del 21 a las 09 UTC al 21 a las 10 UTC
Viento 10 kt del noreste

TAF: ZPPP 201915Z 2100/2124 24004MPS 9999 SCT026 BKN040 TX25/2108Z TN14/2123Z BECMG 2109/2110 04005MPS

Observaciones y pronósticos meteorológicos de más de 4000 aeropuertos (mensajes METAR y TAF).

Los puntos amarillos y rojos representan las estaciones disponibles.

Ponga el ratón en el punto deseado para ver el nombre de la estación.

Haga clic para ver las observaciones y los pronósticos meteorológicos.

Para cambiar el mapa : haga clic en los botones verdes con una cruz de color negro para hacer un zoom, en el botón verde con un guión para alejar o en las flechas verdes para mapas adyacentes.


METAR-TAF: